Time;durP1;ratioP1;P1;durP2;ratioP2;P2;SDS_P1;SDS_P2;PMS_P1;PMS_P2;Temp;Humidity;BMP_temperature;BMP_pressure;BME280_temperature;BME280_humidity;BME280_pressure;Samples;Min_cycle;Max_cycle;Signal;HPM_P1;HPM_P2
2022/05/11 00:01:34;;;;;;;7.23;5.53;;;;;;;;;;5020108;28;20465;-82
2022/05/11 00:04:01;;;;;;;7.93;5.70;;;;;;;;;;5022201;28;20457;-82
2022/05/11 00:06:28;;;;;;;11.70;6.00;;;;;;;;;;5020073;28;20555;-82
2022/05/11 00:08:56;;;;;;;7.40;4.80;;;;;;;;;;5019956;28;20488;-84
2022/05/11 00:11:23;;;;;;;6.37;5.77;;;;;;;;;;5019624;28;20461;-83
2022/05/11 00:13:50;;;;;;;8.67;5.97;;;;;;;;;;5020843;28;20531;-83
2022/05/11 00:16:16;;;;;;;10.50;6.17;;;;;;;;;;5022119;28;20528;-83
2022/05/11 00:18:42;;;;;;;12.23;5.87;;;;;;;;;;5019883;28;20503;-83
2022/05/11 00:21:09;;;;;;;5.97;5.37;;;;;;;;;;5021339;28;20504;-82
2022/05/11 00:23:35;;;;;;;7.93;5.90;;;;;;;;;;5020870;28;21004;-83
2022/05/11 00:26:03;;;;;;;6.53;5.80;;;;;;;;;;5021886;28;20484;-83
2022/05/11 00:28:29;;;;;;;7.17;5.47;;;;;;;;;;5019826;28;20476;-84
2022/05/11 00:30:56;;;;;;;6.60;5.70;;;;;;;;;;5020204;28;20516;-82
2022/05/11 00:33:22;;;;;;;6.83;6.13;;;;;;;;;;5021281;28;20477;-82
2022/05/11 00:35:49;;;;;;;7.67;5.80;;;;;;;;;;5020882;28;20454;-83
2022/05/11 00:38:16;;;;;;;8.30;6.40;;;;;;;;;;5016035;28;20487;-82
2022/05/11 00:40:44;;;;;;;6.63;5.77;;;;;;;;;;5020058;28;20472;-83
2022/05/11 00:43:12;;;;;;;7.17;6.27;;;;;;;;;;5020717;28;20473;-84
2022/05/11 00:45:40;;;;;;;9.03;5.90;;;;;;;;;;5021518;28;20474;-82
2022/05/11 00:50:48;;;;;;;7.97;5.13;;;;;;;;;;5020578;28;20452;-82
2022/05/11 00:53:15;;;;;;;6.17;5.13;;;;;;;;;;5018481;28;20489;-82
2022/05/11 00:55:43;;;;;;;7.77;6.13;;;;;;;;;;5018581;28;20465;-84
2022/05/11 00:58:13;;;;;;;7.00;5.37;;;;;;;;;;5020970;28;20487;-83
2022/05/11 01:00:40;;;;;;;6.57;5.80;;;;;;;;;;5020991;28;20458;-83
2022/05/11 01:03:09;;;;;;;5.90;5.30;;;;;;;;;;5017885;28;20887;-83
2022/05/11 01:05:35;;;;;;;6.33;5.70;;;;;;;;;;5018028;28;20488;-82
2022/05/11 01:08:01;;;;;;;7.80;5.97;;;;;;;;;;5018030;28;20484;-82
2022/05/11 01:10:29;;;;;;;7.37;6.70;;;;;;;;;;5018559;28;20466;-83
2022/05/11 01:12:57;;;;;;;8.47;6.00;;;;;;;;;;5016969;28;20536;-82
2022/05/11 01:15:25;;;;;;;7.50;6.07;;;;;;;;;;5019397;28;20462;-83
2022/05/11 01:17:52;;;;;;;12.73;6.53;;;;;;;;;;5021243;28;20476;-83
2022/05/11 01:20:20;;;;;;;8.07;6.90;;;;;;;;;;5020212;28;20445;-83
2022/05/11 01:22:50;;;;;;;7.90;7.13;;;;;;;;;;5019405;28;20492;-83
2022/05/11 01:25:19;;;;;;;6.70;5.73;;;;;;;;;;5019934;28;20466;-83
2022/05/11 01:27:46;;;;;;;13.50;6.53;;;;;;;;;;5018815;28;20558;-83
2022/05/11 01:30:13;;;;;;;7.00;5.90;;;;;;;;;;5017620;28;20508;-83
2022/05/11 01:32:40;;;;;;;9.13;6.93;;;;;;;;;;5016173;28;20481;-83
2022/05/11 01:35:20;;;;;;;8.90;6.30;;;;;;;;;;5019991;28;20984;-83
2022/05/11 01:37:49;;;;;;;9.20;6.50;;;;;;;;;;5018022;28;20484;-83
2022/05/11 01:40:17;;;;;;;6.43;5.80;;;;;;;;;;5020036;28;20469;-84
2022/05/11 01:42:43;;;;;;;10.40;6.67;;;;;;;;;;5019423;28;20914;-82
2022/05/11 01:45:10;;;;;;;6.70;6.10;;;;;;;;;;5021066;28;20511;-83
2022/05/11 01:47:36;;;;;;;6.83;5.97;;;;;;;;;;5019342;28;21077;-83
2022/05/11 01:50:03;;;;;;;8.43;6.37;;;;;;;;;;5017491;28;20491;-82
2022/05/11 01:52:29;;;;;;;8.07;6.53;;;;;;;;;;5016495;28;20483;-82
2022/05/11 01:54:55;;;;;;;8.17;5.97;;;;;;;;;;5022315;28;20540;-82
2022/05/11 01:57:24;;;;;;;7.60;6.60;;;;;;;;;;5017993;28;20473;-83
2022/05/11 01:59:50;;;;;;;12.73;7.17;;;;;;;;;;5015636;28;20474;-82
2022/05/11 02:02:16;;;;;;;6.80;6.20;;;;;;;;;;5016766;28;21011;-83
2022/05/11 02:10:11;;;;;;;7.70;6.90;;;;;;;;;;5014521;28;20491;-83
2022/05/11 02:12:38;;;;;;;8.27;5.90;;;;;;;;;;5017675;28;20900;-83
2022/05/11 02:15:05;;;;;;;10.37;7.43;;;;;;;;;;5017431;28;20548;-83
2022/05/11 02:17:31;;;;;;;8.87;7.77;;;;;;;;;;5018345;28;20472;-83
2022/05/11 02:19:57;;;;;;;10.63;7.50;;;;;;;;;;5016910;28;20444;-83
2022/05/11 02:22:24;;;;;;;11.17;6.50;;;;;;;;;;5015039;28;20469;-83
2022/05/11 02:24:50;;;;;;;12.10;6.60;;;;;;;;;;5016243;28;20457;-84
2022/05/11 02:27:16;;;;;;;9.07;7.23;;;;;;;;;;5015708;28;20526;-84
2022/05/11 02:29:44;;;;;;;8.60;6.60;;;;;;;;;;5015708;28;20468;-83
2022/05/11 02:32:10;;;;;;;8.33;6.83;;;;;;;;;;5014707;28;20898;-82
2022/05/11 02:37:20;;;;;;;10.00;7.03;;;;;;;;;;5013748;28;20483;-83
2022/05/11 02:39:48;;;;;;;9.37;7.37;;;;;;;;;;5019192;28;20496;-83
2022/05/11 02:42:15;;;;;;;9.10;6.97;;;;;;;;;;5011399;28;20466;-82
2022/05/11 02:44:41;;;;;;;12.47;7.73;;;;;;;;;;5059308;23;20914;-81
2022/05/11 02:47:09;;;;;;;16.60;7.60;;;;;;;;;;4997604;28;20502;-80
2022/05/11 02:49:36;;;;;;;9.00;8.10;;;;;;;;;;4994420;28;20450;-80
2022/05/11 02:52:02;;;;;;;9.17;8.27;;;;;;;;;;4997902;28;20478;-81
2022/05/11 02:54:28;;;;;;;9.57;7.83;;;;;;;;;;5014154;28;20612;-80
2022/05/11 02:56:54;;;;;;;9.17;7.30;;;;;;;;;;5013476;28;20494;-81
2022/05/11 02:59:21;;;;;;;10.40;8.47;;;;;;;;;;5012620;28;20512;-81
2022/05/11 03:01:49;;;;;;;14.70;7.47;;;;;;;;;;5012633;28;20488;-83
2022/05/11 03:04:17;;;;;;;7.57;6.73;;;;;;;;;;5012131;28;20541;-81
2022/05/11 03:06:47;;;;;;;8.40;6.90;;;;;;;;;;5012919;28;20478;-81
2022/05/11 03:09:13;;;;;;;10.80;8.10;;;;;;;;;;5011410;28;20455;-83
2022/05/11 03:11:39;;;;;;;10.17;7.43;;;;;;;;;;5010084;28;20462;-81
2022/05/11 03:14:06;;;;;;;7.80;7.10;;;;;;;;;;5012513;28;20493;-81
2022/05/11 03:16:32;;;;;;;9.90;7.87;;;;;;;;;;5012394;28;20454;-79
2022/05/11 03:19:01;;;;;;;8.87;7.33;;;;;;;;;;5010957;28;20456;-80
2022/05/11 03:21:29;;;;;;;10.33;7.70;;;;;;;;;;5009639;28;20535;-80
2022/05/11 03:23:55;;;;;;;12.30;7.37;;;;;;;;;;5004546;28;21011;-80
2022/05/11 03:26:22;;;;;;;13.80;7.40;;;;;;;;;;5006340;28;20450;-80
2022/05/11 03:28:48;;;;;;;7.93;6.73;;;;;;;;;;5005633;28;20521;-80
2022/05/11 03:31:14;;;;;;;10.73;7.60;;;;;;;;;;5004455;28;20457;-80
2022/05/11 03:36:25;;;;;;;14.77;7.33;;;;;;;;;;5007217;28;20576;-80
2022/05/11 03:38:52;;;;;;;10.47;6.90;;;;;;;;;;5006443;28;20482;-80
2022/05/11 03:41:19;;;;;;;8.50;7.53;;;;;;;;;;5012557;28;20443;-80
2022/05/11 03:43:46;;;;;;;10.93;8.70;;;;;;;;;;5009802;28;20564;-79
2022/05/11 03:46:12;;;;;;;11.93;8.33;;;;;;;;;;5009118;28;20458;-80
2022/05/11 03:48:39;;;;;;;11.33;8.10;;;;;;;;;;5010701;28;20463;-81
2022/05/11 03:51:05;;;;;;;9.70;8.63;;;;;;;;;;5011696;28;20519;-81
2022/05/11 03:53:32;;;;;;;13.23;8.70;;;;;;;;;;5009973;28;20470;-80
2022/05/11 03:55:59;;;;;;;13.47;9.60;;;;;;;;;;5008137;28;20478;-80
2022/05/11 03:58:26;;;;;;;12.80;11.03;;;;;;;;;;5008654;28;20545;-80
2022/05/11 04:00:52;;;;;;;12.13;9.73;;;;;;;;;;5007903;28;20470;-80
2022/05/11 04:03:19;;;;;;;11.30;9.10;;;;;;;;;;5010130;28;20501;-79
2022/05/11 04:05:45;;;;;;;11.40;8.50;;;;;;;;;;5006496;28;20859;-79
2022/05/11 04:08:11;;;;;;;13.63;9.70;;;;;;;;;;5008315;28;20861;-80
2022/05/11 04:10:37;;;;;;;12.70;8.90;;;;;;;;;;5007578;28;20497;-80
2022/05/11 04:13:05;;;;;;;12.53;9.77;;;;;;;;;;5008522;28;20501;-78
2022/05/11 04:15:32;;;;;;;17.20;9.73;;;;;;;;;;5006433;28;20581;-79
2022/05/11 04:17:58;;;;;;;12.60;10.37;;;;;;;;;;5007427;28;20474;-78
2022/05/11 04:20:25;;;;;;;12.63;10.70;;;;;;;;;;5008581;28;20468;-80
2022/05/11 04:22:51;;;;;;;23.87;10.60;;;;;;;;;;5008158;28;20486;-80
2022/05/11 04:25:18;;;;;;;14.40;10.33;;;;;;;;;;5007121;28;20578;-80
2022/05/11 04:27:45;;;;;;;14.33;10.10;;;;;;;;;;5004014;28;20486;-78
2022/05/11 04:30:13;;;;;;;14.37;10.83;;;;;;;;;;5004774;28;20931;-79
2022/05/11 04:32:40;;;;;;;11.03;9.90;;;;;;;;;;5008960;28;20520;-80
2022/05/11 04:35:07;;;;;;;12.33;10.83;;;;;;;;;;5006614;28;20999;-80
2022/05/11 04:37:33;;;;;;;14.70;9.47;;;;;;;;;;5009605;28;20483;-81
2022/05/11 04:39:59;;;;;;;13.30;10.70;;;;;;;;;;5006705;28;20594;-81
2022/05/11 04:42:26;;;;;;;13.70;10.40;;;;;;;;;;5009791;28;20474;-81
2022/05/11 04:44:53;;;;;;;13.03;9.90;;;;;;;;;;5009283;28;21019;-80
2022/05/11 04:47:21;;;;;;;11.70;9.30;;;;;;;;;;5007927;28;20512;-81
2022/05/11 04:49:48;;;;;;;16.10;10.30;;;;;;;;;;5008251;28;20450;-80
2022/05/11 04:52:15;;;;;;;14.23;11.10;;;;;;;;;;5004964;28;21026;-80
2022/05/11 04:54:42;;;;;;;15.37;10.50;;;;;;;;;;5006031;28;20497;-80
2022/05/11 04:57:09;;;;;;;12.23;10.93;;;;;;;;;;5008746;28;20548;-81
2022/05/11 04:59:36;;;;;;;12.13;9.70;;;;;;;;;;5006610;28;20467;-80
2022/05/11 05:02:04;;;;;;;11.90;10.20;;;;;;;;;;5006165;28;20497;-81
2022/05/11 05:04:32;;;;;;;11.37;9.80;;;;;;;;;;5006511;28;20496;-79
2022/05/11 05:06:58;;;;;;;13.83;9.70;;;;;;;;;;5000570;28;21142;-79
2022/05/11 05:09:25;;;;;;;11.73;9.60;;;;;;;;;;5004603;28;20966;-79
2022/05/11 05:11:51;;;;;;;15.00;9.97;;;;;;;;;;5007306;28;20469;-78
2022/05/11 05:14:18;;;;;;;10.40;9.27;;;;;;;;;;5007132;28;20506;-80
2022/05/11 05:16:44;;;;;;;13.40;9.60;;;;;;;;;;5005725;28;20462;-80
2022/05/11 05:19:11;;;;;;;10.03;9.03;;;;;;;;;;4999799;28;21431;-79
2022/05/11 05:21:39;;;;;;;11.30;9.07;;;;;;;;;;5001926;28;21059;-81
2022/05/11 05:24:05;;;;;;;13.30;9.20;;;;;;;;;;5001875;28;20504;-79
2022/05/11 05:26:32;;;;;;;12.93;10.20;;;;;;;;;;5003057;28;20548;-79
2022/05/11 05:31:42;;;;;;;14.63;9.23;;;;;;;;;;5009448;28;20501;-78
2022/05/11 05:34:09;;;;;;;15.63;9.93;;;;;;;;;;5006124;28;20487;-78
2022/05/11 05:36:36;;;;;;;13.63;10.00;;;;;;;;;;5003484;28;20467;-79
2022/05/11 05:39:05;;;;;;;13.73;9.93;;;;;;;;;;5008857;28;20469;-78
2022/05/11 05:41:31;;;;;;;16.90;9.90;;;;;;;;;;5005023;28;20516;-78
2022/05/11 05:43:58;;;;;;;11.00;9.80;;;;;;;;;;5004610;28;20539;-79
2022/05/11 05:46:25;;;;;;;12.20;9.10;;;;;;;;;;5006723;28;20458;-78
2022/05/11 05:48:51;;;;;;;10.60;8.70;;;;;;;;;;5008507;28;21049;-78
2022/05/11 05:51:19;;;;;;;11.93;9.70;;;;;;;;;;5007587;28;20466;-78
2022/05/11 05:53:45;;;;;;;11.83;8.37;;;;;;;;;;5003430;28;20516;-77
2022/05/11 05:56:14;;;;;;;11.47;8.43;;;;;;;;;;5000545;28;20550;-78
2022/05/11 05:58:40;;;;;;;14.60;9.67;;;;;;;;;;5001763;28;20477;-78
2022/05/11 06:01:07;;;;;;;14.67;8.73;;;;;;;;;;5004391;28;20522;-79
2022/05/11 06:03:35;;;;;;;11.87;9.50;;;;;;;;;;5004848;28;20532;-78
2022/05/11 06:06:01;;;;;;;10.67;8.67;;;;;;;;;;5008487;28;21051;-78
2022/05/11 06:08:29;;;;;;;14.60;8.87;;;;;;;;;;5003026;28;21422;-79
2022/05/11 06:10:57;;;;;;;17.77;10.60;;;;;;;;;;5007799;28;20449;-77
2022/05/11 06:13:25;;;;;;;12.70;9.40;;;;;;;;;;5004403;28;20477;-78
2022/05/11 06:15:52;;;;;;;13.43;9.10;;;;;;;;;;5007353;28;20935;-79
2022/05/11 06:18:19;;;;;;;14.13;10.23;;;;;;;;;;5005544;28;20473;-78
2022/05/11 06:20:46;;;;;;;13.43;10.27;;;;;;;;;;5004688;28;20937;-78
2022/05/11 06:23:13;;;;;;;13.10;9.23;;;;;;;;;;5004796;28;20896;-78
2022/05/11 06:25:39;;;;;;;19.50;10.27;;;;;;;;;;5005740;28;20479;-78
2022/05/11 06:28:06;;;;;;;13.17;9.20;;;;;;;;;;5003779;28;20559;-77
2022/05/11 06:30:34;;;;;;;14.27;10.63;;;;;;;;;;5004510;28;20489;-80
2022/05/11 06:33:01;;;;;;;17.20;9.70;;;;;;;;;;5007926;28;20486;-79
2022/05/11 06:35:27;;;;;;;14.20;9.33;;;;;;;;;;5008098;28;20572;-80
2022/05/11 06:37:54;;;;;;;13.57;8.57;;;;;;;;;;5006473;28;20505;-79
2022/05/11 06:40:21;;;;;;;13.13;9.03;;;;;;;;;;5003844;28;20458;-77
2022/05/11 06:42:48;;;;;;;14.43;9.60;;;;;;;;;;5005017;28;20522;-79
2022/05/11 06:45:14;;;;;;;13.27;9.80;;;;;;;;;;5002588;28;21023;-79
2022/05/11 06:47:42;;;;;;;11.43;9.00;;;;;;;;;;5003843;28;20945;-79
2022/05/11 06:50:11;;;;;;;15.13;8.87;;;;;;;;;;4996490;28;21478;-79
2022/05/11 06:52:37;;;;;;;12.57;8.80;;;;;;;;;;5003172;28;20477;-78
2022/05/11 07:00:33;;;;;;;12.00;8.00;;;;;;;;;;5005227;28;20448;-79
2022/05/11 07:03:01;;;;;;;13.40;9.50;;;;;;;;;;5006710;28;20477;-79
2022/05/11 07:05:27;;;;;;;15.73;10.00;;;;;;;;;;5006777;28;20490;-79
2022/05/11 07:07:53;;;;;;;10.37;9.20;;;;;;;;;;5002255;28;20473;-78
2022/05/11 07:10:20;;;;;;;12.63;9.50;;;;;;;;;;5011873;28;20457;-80
2022/05/11 07:12:46;;;;;;;10.17;9.13;;;;;;;;;;5014802;28;20505;-79
2022/05/11 07:15:14;;;;;;;13.07;9.87;;;;;;;;;;5016174;28;20513;-80
2022/05/11 07:17:42;;;;;;;12.13;10.83;;;;;;;;;;5011420;28;20478;-79
2022/05/11 07:20:11;;;;;;;16.53;10.03;;;;;;;;;;5012352;28;21018;-80
2022/05/11 07:22:38;;;;;;;12.10;9.00;;;;;;;;;;5008520;28;20505;-78
2022/05/11 07:25:05;;;;;;;12.37;8.80;;;;;;;;;;5014620;28;20473;-80
2022/05/11 07:27:31;;;;;;;17.07;9.27;;;;;;;;;;5012178;28;20523;-80
2022/05/11 07:29:58;;;;;;;12.10;9.63;;;;;;;;;;5008691;28;20489;-80
2022/05/11 07:32:25;;;;;;;13.27;8.70;;;;;;;;;;5014903;28;20473;-81
2022/05/11 07:34:51;;;;;;;12.80;8.90;;;;;;;;;;5006780;28;20489;-82
2022/05/11 07:37:19;;;;;;;11.70;9.00;;;;;;;;;;5011707;28;20474;-81
2022/05/11 07:39:45;;;;;;;12.23;8.70;;;;;;;;;;5006738;28;20481;-81
2022/05/11 07:42:12;;;;;;;10.80;9.47;;;;;;;;;;5011518;28;20461;-79
2022/05/11 07:44:38;;;;;;;12.23;9.40;;;;;;;;;;5013435;28;20551;-80
2022/05/11 07:47:05;;;;;;;11.83;8.10;;;;;;;;;;5009445;28;20523;-82
2022/05/11 07:49:31;;;;;;;16.93;9.20;;;;;;;;;;5015611;28;20472;-80
2022/05/11 07:51:57;;;;;;;12.90;9.00;;;;;;;;;;5010384;28;20474;-81
2022/05/11 07:54:25;;;;;;;9.67;8.13;;;;;;;;;;5008449;28;20470;-81
2022/05/11 07:59:56;;;;;;;7.93;7.13;;;;;;;;;;5010617;28;20461;-80
2022/05/11 08:02:26;;;;;;;10.33;7.90;;;;;;;;;;5007106;28;20480;-81
2022/05/11 08:04:53;;;;;;;11.57;7.97;;;;;;;;;;5014120;28;21082;-80
2022/05/11 08:07:19;;;;;;;8.17;6.53;;;;;;;;;;5009273;28;20557;-82
2022/05/11 08:09:47;;;;;;;11.17;7.33;;;;;;;;;;5007567;28;20998;-79
2022/05/11 08:12:13;;;;;;;8.27;6.60;;;;;;;;;;5006995;28;20470;-80
2022/05/11 08:14:39;;;;;;;11.30;6.80;;;;;;;;;;5010212;28;20529;-80
2022/05/11 08:17:06;;;;;;;9.37;6.30;;;;;;;;;;5010060;28;20473;-81
2022/05/11 08:19:32;;;;;;;8.30;6.23;;;;;;;;;;5011721;28;20494;-80
2022/05/11 08:21:58;;;;;;;8.67;6.40;;;;;;;;;;5014675;28;20858;-81
2022/05/11 08:24:26;;;;;;;6.40;5.37;;;;;;;;;;5013903;28;20544;-81
2022/05/11 08:26:53;;;;;;;17.37;5.73;;;;;;;;;;5007782;28;20489;-81
2022/05/11 08:34:49;;;;;;;9.40;5.10;;;;;;;;;;5011536;28;21012;-81
2022/05/11 08:37:16;;;;;;;9.20;5.00;;;;;;;;;;5010827;28;20474;-81
2022/05/11 08:39:43;;;;;;;7.90;5.23;;;;;;;;;;5008761;28;20458;-79
2022/05/11 08:42:12;;;;;;;6.30;5.33;;;;;;;;;;5007683;28;20856;-81
2022/05/11 08:44:41;;;;;;;10.27;4.47;;;;;;;;;;5031960;23;20493;-85
2022/05/11 08:47:14;;;;;;;9.67;5.00;;;;;;;;;;5005358;28;20577;-83
2022/05/11 08:49:47;;;;;;;6.40;4.43;;;;;;;;;;5004421;28;20560;-84
2022/05/11 08:52:17;;;;;;;10.80;6.70;;;;;;;;;;5001806;28;21126;-82
2022/05/11 08:54:45;;;;;;;6.10;4.70;;;;;;;;;;5002277;28;20924;-82
2022/05/11 08:57:16;;;;;;;7.70;5.20;;;;;;;;;;5003992;28;20552;-84
2022/05/11 08:59:43;;;;;;;7.37;4.80;;;;;;;;;;5002345;28;20465;-84
2022/05/11 09:02:15;;;;;;;8.70;4.17;;;;;;;;;;5000739;28;20851;-82
2022/05/11 09:04:44;;;;;;;7.07;4.97;;;;;;;;;;5001807;28;20494;-82
2022/05/11 09:07:11;;;;;;;5.60;4.30;;;;;;;;;;5001706;28;20471;-84
2022/05/11 09:09:37;;;;;;;9.73;5.53;;;;;;;;;;5003371;28;20579;-83
2022/05/11 09:12:05;;;;;;;7.00;4.63;;;;;;;;;;5001828;28;20484;-84
2022/05/11 09:14:34;;;;;;;7.60;5.07;;;;;;;;;;5007695;28;20472;-84
2022/05/11 09:17:01;;;;;;;6.83;5.00;;;;;;;;;;4999856;28;20884;-84
2022/05/11 09:19:29;;;;;;;9.93;4.97;;;;;;;;;;5003764;28;20467;-83
2022/05/11 09:21:56;;;;;;;7.13;4.70;;;;;;;;;;5003055;28;20495;-84
2022/05/11 09:24:30;;;;;;;13.90;5.73;;;;;;;;;;5005070;28;20518;-83
2022/05/11 09:27:07;;;;;;;6.17;5.13;;;;;;;;;;5004060;28;20474;-83
2022/05/11 09:29:37;;;;;;;15.97;6.80;;;;;;;;;;5003286;28;21200;-82
2022/05/11 09:32:19;;;;;;;10.80;7.10;;;;;;;;;;5001579;28;21551;-83
2022/05/11 09:34:46;;;;;;;6.63;5.50;;;;;;;;;;4999391;28;20485;-83
2022/05/11 09:37:23;;;;;;;12.30;4.97;;;;;;;;;;4999345;28;20474;-84
2022/05/11 09:39:51;;;;;;;9.07;5.70;;;;;;;;;;4999015;28;20470;-83
2022/05/11 09:42:20;;;;;;;9.33;5.53;;;;;;;;;;5001725;28;20864;-82
2022/05/11 09:44:49;;;;;;;8.37;5.43;;;;;;;;;;5001781;28;20490;-82
2022/05/11 09:47:27;;;;;;;11.40;5.60;;;;;;;;;;5000717;28;20479;-82
2022/05/11 09:49:53;;;;;;;12.13;5.00;;;;;;;;;;5001236;28;20437;-82
2022/05/11 09:52:31;;;;;;;6.13;4.60;;;;;;;;;;4998239;28;20460;-83
2022/05/11 09:54:57;;;;;;;7.47;4.07;;;;;;;;;;4999756;28;20522;-83
2022/05/11 09:57:27;;;;;;;7.20;5.33;;;;;;;;;;4997650;28;20514;-83
2022/05/11 10:00:08;;;;;;;6.60;4.97;;;;;;;;;;5000760;28;20527;-83
2022/05/11 10:02:37;;;;;;;6.77;5.07;;;;;;;;;;5002167;28;20474;-83
2022/05/11 10:05:04;;;;;;;5.10;4.30;;;;;;;;;;4999845;28;20515;-82
2022/05/11 10:07:33;;;;;;;5.77;4.80;;;;;;;;;;5000811;28;20493;-83
2022/05/11 10:10:02;;;;;;;7.43;5.17;;;;;;;;;;4996385;28;20437;-83
2022/05/11 10:12:32;;;;;;;12.10;6.07;;;;;;;;;;5000043;28;20473;-83
2022/05/11 10:23:24;;;;;;;8.67;5.37;;;;;;;;;;4991620;28;20516;-83
2022/05/11 10:25:54;;;;;;;9.43;5.63;;;;;;;;;;4999007;28;20492;-82
2022/05/11 10:28:24;;;;;;;5.93;4.87;;;;;;;;;;5003331;28;20915;-82
2022/05/11 10:30:55;;;;;;;9.33;5.53;;;;;;;;;;4997713;28;20466;-83
2022/05/11 10:33:30;;;;;;;9.13;5.43;;;;;;;;;;5002646;28;20476;-83
2022/05/11 10:36:00;;;;;;;6.70;5.47;;;;;;;;;;5000044;28;20477;-82
2022/05/11 10:38:35;;;;;;;7.73;5.23;;;;;;;;;;4999180;28;20469;-83
2022/05/11 10:41:06;;;;;;;6.17;4.77;;;;;;;;;;5000306;28;20816;-85
2022/05/11 10:43:37;;;;;;;9.60;5.63;;;;;;;;;;5003547;28;20478;-85
2022/05/11 10:46:11;;;;;;;6.70;4.20;;;;;;;;;;5006148;28;20457;-84
2022/05/11 10:48:43;;;;;;;6.93;3.90;;;;;;;;;;5004064;28;20486;-84
2022/05/11 10:51:13;;;;;;;7.83;5.17;;;;;;;;;;5004044;28;20968;-84
2022/05/11 10:53:42;;;;;;;8.67;5.70;;;;;;;;;;5000656;28;20478;-83
2022/05/11 10:56:19;;;;;;;9.00;5.17;;;;;;;;;;5001959;28;20478;-83
2022/05/11 10:59:00;;;;;;;10.40;4.87;;;;;;;;;;5001629;28;20489;-85
2022/05/11 11:01:30;;;;;;;7.07;5.00;;;;;;;;;;5007251;28;20462;-84
2022/05/11 11:04:09;;;;;;;9.10;4.80;;;;;;;;;;5003497;28;20544;-84
2022/05/11 11:09:41;;;;;;;5.97;4.50;;;;;;;;;;5005698;28;20461;-84
2022/05/11 11:12:13;;;;;;;10.57;4.50;;;;;;;;;;4998084;28;20489;-83
2022/05/11 11:14:42;;;;;;;8.67;3.63;;;;;;;;;;5007831;28;20474;-83
2022/05/11 11:17:11;;;;;;;6.73;3.90;;;;;;;;;;5003675;28;20593;-83
2022/05/11 11:19:40;;;;;;;4.10;3.23;;;;;;;;;;5004956;28;20471;-83
2022/05/11 11:22:06;;;;;;;6.97;3.70;;;;;;;;;;5003515;28;20469;-82
2022/05/11 11:24:34;;;;;;;6.57;3.60;;;;;;;;;;5006085;28;20922;-83
2022/05/11 11:27:01;;;;;;;7.33;3.57;;;;;;;;;;5007922;28;20502;-82
2022/05/11 11:29:28;;;;;;;8.00;4.00;;;;;;;;;;5006482;28;20465;-83
2022/05/11 11:32:06;;;;;;;6.90;3.43;;;;;;;;;;5004831;28;20536;-84
2022/05/11 11:34:35;;;;;;;5.07;3.50;;;;;;;;;;5008095;28;20481;-85
2022/05/11 11:37:22;;;;;;;8.30;3.67;;;;;;;;;;5001619;28;20577;-83
2022/05/11 11:39:55;;;;;;;5.37;3.23;;;;;;;;;;5006554;28;20469;-84
2022/05/11 11:42:33;;;;;;;6.37;3.03;;;;;;;;;;5005733;28;20478;-84
2022/05/11 11:44:59;;;;;;;9.20;3.57;;;;;;;;;;5005392;28;21006;-83
2022/05/11 11:47:36;;;;;;;4.13;3.00;;;;;;;;;;5006341;28;20474;-84
2022/05/11 11:50:08;;;;;;;6.73;3.07;;;;;;;;;;5003444;28;20462;-83
2022/05/11 11:52:36;;;;;;;6.57;2.60;;;;;;;;;;5002739;28;20552;-83
2022/05/11 11:55:08;;;;;;;7.73;2.90;;;;;;;;;;5000042;28;20490;-84
2022/05/11 11:57:34;;;;;;;9.03;3.50;;;;;;;;;;5005247;28;20520;-84
2022/05/11 12:00:02;;;;;;;5.70;3.30;;;;;;;;;;5003736;28;20469;-85
2022/05/11 12:02:29;;;;;;;4.73;3.57;;;;;;;;;;5002647;28;21007;-85
2022/05/11 12:05:02;;;;;;;4.97;2.67;;;;;;;;;;5006291;28;20491;-82
2022/05/11 12:15:58;;;;;;;7.03;2.67;;;;;;;;;;5006925;28;20481;-84
2022/05/11 12:18:26;;;;;;;3.10;2.10;;;;;;;;;;5002935;28;20480;-85
2022/05/11 12:20:54;;;;;;;13.00;2.97;;;;;;;;;;5006326;28;20467;-83
2022/05/11 12:23:22;;;;;;;7.60;2.20;;;;;;;;;;5002778;28;20467;-83
2022/05/11 12:25:54;;;;;;;6.07;2.37;;;;;;;;;;5003062;28;20501;-85
2022/05/11 12:28:21;;;;;;;4.90;2.37;;;;;;;;;;5004338;28;20478;-83
2022/05/11 12:30:48;;;;;;;6.70;2.60;;;;;;;;;;5007433;28;20514;-84
2022/05/11 12:33:20;;;;;;;4.23;2.07;;;;;;;;;;5009835;28;21015;-83
2022/05/11 12:35:49;;;;;;;3.27;2.10;;;;;;;;;;5003622;28;20483;-82
2022/05/11 12:38:26;;;;;;;5.70;3.03;;;;;;;;;;5004997;28;20529;-82
2022/05/11 12:40:54;;;;;;;6.80;2.70;;;;;;;;;;5001595;28;20461;-84
2022/05/11 12:43:22;;;;;;;5.37;1.80;;;;;;;;;;5000520;28;20508;-84
2022/05/11 12:45:49;;;;;;;6.43;2.30;;;;;;;;;;5007345;28;20941;-83
2022/05/11 12:48:19;;;;;;;7.83;2.50;;;;;;;;;;5005911;28;21066;-84
2022/05/11 12:50:50;;;;;;;7.70;2.30;;;;;;;;;;5004695;28;20463;-83
2022/05/11 12:53:24;;;;;;;8.00;2.27;;;;;;;;;;5001841;28;20470;-84
2022/05/11 12:55:51;;;;;;;4.43;2.00;;;;;;;;;;5002667;28;20481;-86
2022/05/11 12:58:20;;;;;;;4.60;2.03;;;;;;;;;;5000717;28;20943;-84
2022/05/11 13:00:46;;;;;;;9.33;2.10;;;;;;;;;;5004615;28;20458;-83
2022/05/11 13:03:23;;;;;;;6.80;2.50;;;;;;;;;;5003229;28;20520;-81
2022/05/11 13:05:51;;;;;;;5.90;2.73;;;;;;;;;;5003665;28;20457;-83
2022/05/11 13:08:18;;;;;;;8.50;2.77;;;;;;;;;;5001263;28;20470;-83
2022/05/11 13:10:45;;;;;;;4.50;2.20;;;;;;;;;;5002955;28;21046;-83
2022/05/11 13:13:13;;;;;;;6.43;2.80;;;;;;;;;;5005539;28;20549;-84
2022/05/11 13:15:42;;;;;;;8.60;2.20;;;;;;;;;;5000230;28;20479;-83
2022/05/11 13:18:09;;;;;;;10.00;2.03;;;;;;;;;;5004919;28;20478;-83
2022/05/11 13:20:37;;;;;;;4.40;1.80;;;;;;;;;;5002528;28;20517;-83
2022/05/11 13:23:04;;;;;;;3.17;1.90;;;;;;;;;;5003396;28;20478;-84
2022/05/11 13:25:38;;;;;;;6.50;1.70;;;;;;;;;;5002701;28;21034;-84
2022/05/11 13:28:12;;;;;;;4.13;2.43;;;;;;;;;;5003356;28;20512;-83
2022/05/11 13:30:42;;;;;;;2.87;2.03;;;;;;;;;;5002345;28;20474;-84
2022/05/11 13:33:23;;;;;;;5.60;2.10;;;;;;;;;;5001238;28;20466;-83
2022/05/11 13:36:04;;;;;;;3.40;1.90;;;;;;;;;;4999811;28;20924;-83
2022/05/11 13:38:30;;;;;;;4.50;2.50;;;;;;;;;;4999155;28;20413;-83
2022/05/11 13:40:57;;;;;;;6.30;2.20;;;;;;;;;;4998121;28;20453;-83
2022/05/11 13:43:26;;;;;;;3.90;1.70;;;;;;;;;;5002626;28;20444;-83
2022/05/11 13:45:56;;;;;;;7.90;2.40;;;;;;;;;;5002571;28;20430;-83
2022/05/11 13:48:23;;;;;;;4.93;2.60;;;;;;;;;;5003017;28;20424;-83
2022/05/11 13:50:51;;;;;;;6.75;2.65;;;;;;;;;;5005559;28;20503;-84
2022/05/11 13:53:22;;;;;;;4.07;1.90;;;;;;;;;;5002225;28;21002;-83
2022/05/11 13:56:00;;;;;;;4.60;1.60;;;;;;;;;;5004659;28;20861;-86
2022/05/11 13:58:31;;;;;;;11.57;2.08;;;;;;;;;;5003830;28;20437;-85
2022/05/11 14:00:59;;;;;;;6.68;1.90;;;;;;;;;;5001878;28;20475;-83
2022/05/11 14:03:31;;;;;;;3.80;2.00;;;;;;;;;;5000806;28;20427;-82
2022/05/11 14:05:59;;;;;;;4.78;2.10;;;;;;;;;;4999867;28;20494;-82
2022/05/11 14:08:26;;;;;;;7.35;2.13;;;;;;;;;;4996068;28;20437;-83
2022/05/11 14:10:53;;;;;;;5.30;2.38;;;;;;;;;;4999128;28;20527;-83
2022/05/11 14:13:19;;;;;;;8.57;2.50;;;;;;;;;;4999379;28;20941;-84
2022/05/11 14:15:46;;;;;;;6.63;2.40;;;;;;;;;;4999716;28;20438;-84
2022/05/11 14:18:14;;;;;;;7.05;2.28;;;;;;;;;;4999072;28;20432;-84
2022/05/11 14:20:40;;;;;;;4.35;1.90;;;;;;;;;;5000535;28;20487;-82
2022/05/11 14:23:08;;;;;;;5.45;1.92;;;;;;;;;;5000868;28;20456;-84
2022/05/11 14:25:35;;;;;;;5.45;2.00;;;;;;;;;;5000204;28;20465;-86
2022/05/11 14:28:01;;;;;;;6.57;2.08;;;;;;;;;;5000381;28;20509;-83
2022/05/11 14:30:27;;;;;;;6.18;1.90;;;;;;;;;;4999233;28;20499;-83
2022/05/11 14:32:53;;;;;;;8.90;2.35;;;;;;;;;;5001504;28;20483;-84
2022/05/11 14:35:22;;;;;;;7.88;2.65;;;;;;;;;;5000298;28;20442;-84
2022/05/11 14:37:48;;;;;;;4.30;2.30;;;;;;;;;;4995322;28;20920;-84
2022/05/11 14:40:18;;;;;;;6.80;2.13;;;;;;;;;;5001174;28;20432;-84
2022/05/11 14:42:45;;;;;;;6.75;1.80;;;;;;;;;;4998595;28;20426;-82
2022/05/11 14:45:12;;;;;;;11.20;2.75;;;;;;;;;;5037373;23;20494;-82
2022/05/11 14:47:38;;;;;;;7.25;2.20;;;;;;;;;;5009550;28;20428;-82
2022/05/11 14:50:07;;;;;;;4.43;1.90;;;;;;;;;;5009779;28;20874;-82
2022/05/11 14:52:34;;;;;;;4.85;1.90;;;;;;;;;;5007007;28;20936;-82
2022/05/11 14:55:00;;;;;;;5.45;1.67;;;;;;;;;;5009412;28;20434;-81
2022/05/11 15:02:57;;;;;;;7.78;1.80;;;;;;;;;;5006145;28;20543;-80
2022/05/11 15:05:23;;;;;;;4.68;2.20;;;;;;;;;;5008409;28;20440;-80
2022/05/11 15:07:49;;;;;;;5.60;1.73;;;;;;;;;;5005051;28;20416;-81
2022/05/11 15:10:16;;;;;;;5.63;1.75;;;;;;;;;;5008056;28;20919;-82
2022/05/11 15:15:28;;;;;;;3.60;1.40;;;;;;;;;;5008947;28;20398;-80
2022/05/11 15:17:55;;;;;;;6.30;1.60;;;;;;;;;;5007738;28;20442;-81
2022/05/11 15:20:22;;;;;;;4.10;1.30;;;;;;;;;;5004092;28;20449;-83
2022/05/11 15:22:49;;;;;;;7.35;1.98;;;;;;;;;;5004196;28;20490;-81
2022/05/11 15:25:16;;;;;;;6.20;1.70;;;;;;;;;;5004929;28;20499;-81
2022/05/11 15:27:44;;;;;;;5.50;1.70;;;;;;;;;;5006030;28;20426;-82
2022/05/11 15:30:11;;;;;;;5.43;1.90;;;;;;;;;;5010344;28;20435;-81
2022/05/11 15:32:38;;;;;;;5.75;1.88;;;;;;;;;;5009939;28;20422;-82
2022/05/11 15:35:04;;;;;;;5.10;1.80;;;;;;;;;;5013339;28;20954;-81
2022/05/11 15:37:31;;;;;;;5.55;1.77;;;;;;;;;;5008020;28;20476;-79
2022/05/11 15:39:57;;;;;;;5.68;2.22;;;;;;;;;;5009171;28;20504;-81